createdAt,value
2023-01-30T00:01:19.295Z,-2.51
2023-01-30T00:03:46.346Z,-2.54
2023-01-30T00:06:13.256Z,-2.56
2023-01-30T00:08:40.236Z,-2.58
2023-01-30T00:11:08.684Z,-2.62
2023-01-30T00:13:36.150Z,-2.62
2023-01-30T00:16:03.567Z,-2.62
2023-01-30T00:18:30.953Z,-2.62
2023-01-30T00:20:58.918Z,-2.62
2023-01-30T00:23:26.891Z,-2.61
2023-01-30T00:25:53.955Z,-2.60
2023-01-30T00:28:21.213Z,-2.59
2023-01-30T00:30:48.815Z,-2.58
2023-01-30T00:33:16.153Z,-2.57
2023-01-30T00:35:45.891Z,-2.56
2023-01-30T00:38:13.528Z,-2.56
2023-01-30T00:40:41.787Z,-2.56
2023-01-30T00:43:31.690Z,-2.56
2023-01-30T00:46:17.425Z,-2.56
2023-01-30T00:48:44.391Z,-2.56
2023-01-30T00:51:11.282Z,-2.56
2023-01-30T00:53:38.149Z,-2.56
2023-01-30T00:56:05.420Z,-2.57
2023-01-30T00:58:33.256Z,-2.55
2023-01-30T01:01:00.284Z,-2.56
2023-01-30T01:03:27.241Z,-2.56
2023-01-30T01:05:54.218Z,-2.56
2023-01-30T01:08:22.176Z,-2.55
2023-01-30T01:10:49.025Z,-2.53
2023-01-30T01:13:16.173Z,-2.50
2023-01-30T01:15:43.123Z,-2.47
2023-01-30T01:18:09.989Z,-2.46
2023-01-30T01:20:36.862Z,-2.46
2023-01-30T01:23:03.772Z,-2.46
2023-01-30T01:25:30.703Z,-2.47
2023-01-30T01:27:57.655Z,-2.48
2023-01-30T01:30:24.750Z,-2.47
2023-01-30T01:32:51.750Z,-2.46
2023-01-30T01:35:19.625Z,-2.45
2023-01-30T01:37:46.813Z,-2.45
2023-01-30T01:40:36.994Z,-2.48
2023-01-30T01:43:21.103Z,-2.51
2023-01-30T01:45:49.636Z,-2.49
2023-01-30T01:48:20.633Z,-2.48
2023-01-30T01:51:03.050Z,-2.47
2023-01-30T01:53:33.388Z,-2.47
2023-01-30T01:56:01.831Z,-2.47
2023-01-30T01:58:35.147Z,-2.49
2023-01-30T02:01:02.152Z,-2.50
2023-01-30T02:03:32.154Z,-2.52
2023-01-30T02:06:00.734Z,-2.51
2023-01-30T02:08:38.418Z,-2.49
2023-01-30T02:11:14.756Z,-2.49
2023-01-30T02:13:41.766Z,-2.51
2023-01-30T02:16:09.099Z,-2.51
2023-01-30T02:18:39.008Z,-2.54
2023-01-30T02:21:26.183Z,-2.55
2023-01-30T02:23:59.588Z,-2.55
2023-01-30T02:26:38.022Z,-2.55
2023-01-30T02:29:14.426Z,-2.55
2023-01-30T02:32:01.875Z,-2.53
2023-01-30T02:34:41.171Z,-2.51
2023-01-30T02:37:24.072Z,-2.49
2023-01-30T02:39:53.793Z,-2.48
2023-01-30T02:42:44.039Z,-2.47
2023-01-30T02:45:28.944Z,-2.48
2023-01-30T02:47:59.165Z,-2.53
2023-01-30T02:50:28.879Z,-2.55
2023-01-30T02:52:57.377Z,-2.60
2023-01-30T02:55:26.211Z,-2.62
2023-01-30T02:57:53.605Z,-2.63
2023-01-30T03:00:44.065Z,-2.64
2023-01-30T03:03:15.272Z,-2.63
2023-01-30T03:05:42.138Z,-2.61
2023-01-30T03:08:28.267Z,-2.60
2023-01-30T03:11:00.594Z,-2.59
2023-01-30T03:13:34.623Z,-2.58
2023-01-30T03:16:08.161Z,-2.57
2023-01-30T03:18:36.267Z,-2.58
2023-01-30T03:21:04.758Z,-2.58
2023-01-30T03:23:31.676Z,-2.57
2023-01-30T03:25:59.117Z,-2.54
2023-01-30T03:28:26.863Z,-2.51
2023-01-30T03:30:53.744Z,-2.49
2023-01-30T03:33:20.752Z,-2.46
2023-01-30T03:35:49.344Z,-2.45
2023-01-30T03:38:17.702Z,-2.42
2023-01-30T03:40:46.699Z,-2.40
2023-01-30T03:43:13.546Z,-2.39
2023-01-30T03:45:41.460Z,-2.37
2023-01-30T03:48:08.439Z,-2.36
2023-01-30T03:50:35.443Z,-2.35
2023-01-30T03:53:02.344Z,-2.33
2023-01-30T03:55:29.344Z,-2.32
2023-01-30T03:57:57.049Z,-2.32
2023-01-30T04:00:24.667Z,-2.32
2023-01-30T04:02:53.346Z,-2.32
2023-01-30T04:05:20.713Z,-2.31
2023-01-30T04:07:56.186Z,-2.30
2023-01-30T04:10:23.561Z,-2.28
2023-01-30T04:12:50.522Z,-2.26
2023-01-30T04:15:19.423Z,-2.25
2023-01-30T04:18:02.955Z,-2.25
2023-01-30T04:20:29.941Z,-2.26
2023-01-30T04:22:57.030Z,-2.28
2023-01-30T04:25:25.216Z,-2.28
2023-01-30T04:27:52.225Z,-2.28
2023-01-30T04:30:22.418Z,-2.27
2023-01-30T04:32:53.074Z,-2.25
2023-01-30T04:35:20.135Z,-2.23
2023-01-30T04:37:47.198Z,-2.22
2023-01-30T04:40:17.580Z,-2.20
2023-01-30T04:42:44.604Z,-2.19
2023-01-30T04:45:30.437Z,-2.20
2023-01-30T04:47:57.518Z,-2.19
2023-01-30T04:50:25.181Z,-2.20
2023-01-30T04:52:52.323Z,-2.19
2023-01-30T04:55:19.717Z,-2.18
2023-01-30T04:57:46.738Z,-2.17
2023-01-30T05:00:13.845Z,-2.16
2023-01-30T05:02:46.060Z,-2.16
2023-01-30T05:05:12.965Z,-2.14
2023-01-30T05:07:39.863Z,-2.14
2023-01-30T05:10:07.064Z,-2.14
2023-01-30T05:12:34.579Z,-2.12
2023-01-30T05:15:01.565Z,-2.12
2023-01-30T05:17:28.479Z,-2.11
2023-01-30T05:19:55.327Z,-2.11
2023-01-30T05:22:22.203Z,-2.12
2023-01-30T05:24:49.036Z,-2.11
2023-01-30T05:27:15.940Z,-2.09
2023-01-30T05:29:42.869Z,-2.07
2023-01-30T05:32:14.124Z,-2.07
2023-01-30T05:34:41.146Z,-2.08
2023-01-30T05:37:08.414Z,-2.10
2023-01-30T05:39:35.343Z,-2.10
2023-01-30T05:42:02.630Z,-2.07
2023-01-30T05:44:29.700Z,-2.05
2023-01-30T05:46:57.383Z,-2.03
2023-01-30T05:49:24.376Z,-2.02
2023-01-30T05:51:51.644Z,-1.99
2023-01-30T05:54:18.646Z,-1.96
2023-01-30T05:56:48.465Z,-1.93
2023-01-30T05:59:16.102Z,-1.92
2023-01-30T06:01:43.044Z,-1.91
2023-01-30T06:04:09.892Z,-1.88
2023-01-30T06:06:36.867Z,-1.86
2023-01-30T06:09:04.299Z,-1.85
2023-01-30T06:11:31.185Z,-1.84
2023-01-30T06:13:57.976Z,-1.83
2023-01-30T06:16:24.982Z,-1.80
2023-01-30T06:18:51.857Z,-1.78
2023-01-30T06:21:18.664Z,-1.77
2023-01-30T06:23:45.922Z,-1.76
2023-01-30T06:26:12.941Z,-1.76
2023-01-30T06:28:39.838Z,-1.76
2023-01-30T06:31:07.560Z,-1.75
2023-01-30T06:33:34.849Z,-1.75
2023-01-30T06:36:01.849Z,-1.73
2023-01-30T06:38:28.926Z,-1.70
2023-01-30T06:40:55.768Z,-1.68
2023-01-30T06:43:22.660Z,-1.65
2023-01-30T06:45:49.667Z,-1.64
2023-01-30T06:48:16.565Z,-1.64
2023-01-30T06:50:45.532Z,-1.63
2023-01-30T06:53:12.514Z,-1.63
2023-01-30T06:55:39.446Z,-1.61
2023-01-30T06:58:07.268Z,-1.58
2023-01-30T07:00:34.407Z,-1.55
2023-01-30T07:03:01.304Z,-1.55
2023-01-30T07:05:28.532Z,-1.55
2023-01-30T07:07:55.432Z,-1.56
2023-01-30T07:10:22.421Z,-1.55
2023-01-30T07:12:49.506Z,-1.54
2023-01-30T07:15:16.864Z,-1.54
2023-01-30T07:17:44.015Z,-1.51
2023-01-30T07:20:11.428Z,-1.51
2023-01-30T07:22:38.377Z,-1.52
2023-01-30T07:25:05.564Z,-1.54
2023-01-30T07:27:32.894Z,-1.54
2023-01-30T07:29:59.840Z,-1.51
2023-01-30T07:32:26.950Z,-1.47
2023-01-30T07:34:54.027Z,-1.43
2023-01-30T07:37:20.870Z,-1.42
2023-01-30T07:39:47.740Z,-1.38
2023-01-30T07:42:14.899Z,-1.35
2023-01-30T07:44:42.069Z,-1.30
2023-01-30T07:47:09.163Z,-1.27
2023-01-30T07:49:36.163Z,-1.22
2023-01-30T07:52:03.110Z,-1.17
2023-01-30T07:54:30.474Z,-1.13
2023-01-30T07:56:57.446Z,-1.08
2023-01-30T07:59:24.373Z,-1.03
2023-01-30T08:01:51.410Z,-0.99
2023-01-30T08:04:18.716Z,-0.94
2023-01-30T08:06:45.864Z,-0.89
2023-01-30T08:09:12.998Z,-0.84
2023-01-30T08:11:39.843Z,-0.80
2023-01-30T08:14:06.894Z,-0.77
2023-01-30T08:16:34.121Z,-0.74
2023-01-30T08:19:03.515Z,-0.69
2023-01-30T08:21:30.620Z,-0.67
2023-01-30T08:24:00.108Z,-0.63
2023-01-30T08:26:27.102Z,-0.60
2023-01-30T08:28:55.443Z,-0.56
2023-01-30T08:31:22.587Z,-0.53
2023-01-30T08:33:49.563Z,-0.49
2023-01-30T08:36:16.587Z,-0.46
2023-01-30T08:38:43.539Z,-0.42
2023-01-30T08:41:10.736Z,-0.38
2023-01-30T08:43:37.842Z,-0.34
2023-01-30T08:46:04.808Z,-0.34
2023-01-30T08:48:47.461Z,-0.34
2023-01-30T08:51:15.837Z,-0.33
2023-01-30T08:53:42.879Z,-0.32
2023-01-30T08:56:10.235Z,-0.32
2023-01-30T08:58:37.381Z,-0.31
2023-01-30T09:01:05.045Z,-0.30
2023-01-30T09:03:31.981Z,-0.30
2023-01-30T09:05:59.479Z,-0.31
2023-01-30T09:08:26.528Z,-0.30
2023-01-30T09:10:57.391Z,-0.30
2023-01-30T09:13:24.962Z,-0.28
2023-01-30T09:15:52.036Z,-0.25
2023-01-30T09:18:19.244Z,-0.25
2023-01-30T09:20:46.256Z,-0.23
2023-01-30T09:23:13.198Z,-0.22
2023-01-30T09:25:40.320Z,-0.20
2023-01-30T09:28:07.602Z,-0.16
2023-01-30T09:30:34.629Z,-0.12
2023-01-30T09:33:01.952Z,-0.08
2023-01-30T09:35:28.827Z,-0.04
2023-01-30T09:37:55.876Z,-0.01
2023-01-30T09:40:24.658Z,0.03
2023-01-30T09:43:10.831Z,0.05
2023-01-30T09:45:43.758Z,0.06
2023-01-30T09:48:22.626Z,0.07
2023-01-30T09:51:08.681Z,0.04
2023-01-30T09:53:35.708Z,0.06
2023-01-30T09:56:03.063Z,0.11
2023-01-30T09:58:39.633Z,0.14
2023-01-30T10:01:11.389Z,0.16
2023-01-30T10:03:44.699Z,0.17
2023-01-30T10:06:13.758Z,0.18
2023-01-30T10:08:40.744Z,0.20
2023-01-30T10:11:13.942Z,0.20
2023-01-30T10:13:46.809Z,0.23
2023-01-30T10:16:19.146Z,0.28
2023-01-30T10:18:55.377Z,0.21
2023-01-30T10:21:40.620Z,-0.04
2023-01-30T10:24:33.853Z,-0.10
2023-01-30T10:27:03.714Z,-0.20
2023-01-30T10:29:43.372Z,-0.28
2023-01-30T10:32:14.174Z,-0.29
2023-01-30T10:34:51.139Z,-0.25
2023-01-30T10:37:27.441Z,-0.21
2023-01-30T10:40:00.154Z,-0.13
2023-01-30T10:42:38.876Z,-0.11
2023-01-30T10:45:11.618Z,-0.08
2023-01-30T10:47:47.002Z,-0.08
2023-01-30T10:50:21.200Z,-0.12
2023-01-30T10:53:01.683Z,-0.26
2023-01-30T10:55:37.697Z,-0.30
2023-01-30T10:58:16.969Z,-0.34
2023-01-30T11:00:53.175Z,-0.37
2023-01-30T11:03:20.363Z,-0.40
2023-01-30T11:05:48.989Z,-0.39
2023-01-30T11:08:21.386Z,-0.41
2023-01-30T11:10:48.755Z,-0.38
2023-01-30T11:13:15.702Z,-0.36
2023-01-30T11:15:44.744Z,-0.42
2023-01-30T11:18:49.769Z,-0.47
2023-01-30T11:21:05.112Z,-0.48
2023-01-30T11:23:34.303Z,-0.44
2023-01-30T11:26:11.409Z,-0.46
2023-01-30T11:28:43.661Z,-0.58
2023-01-30T11:31:38.901Z,-0.60
2023-01-30T11:34:18.609Z,-0.55
2023-01-30T11:36:48.899Z,-0.49
2023-01-30T11:39:17.108Z,-0.44
2023-01-30T11:41:56.429Z,-0.38
2023-01-30T11:44:27.157Z,-0.32
2023-01-30T11:46:57.211Z,-0.35
2023-01-30T11:49:50.811Z,-0.42
2023-01-30T11:52:17.638Z,-0.48
2023-01-30T11:54:45.534Z,-0.48
2023-01-30T11:57:16.829Z,-0.49
2023-01-30T11:59:45.475Z,-0.52
2023-01-30T12:02:15.642Z,-0.55
2023-01-30T12:04:44.243Z,-0.53
2023-01-30T12:07:30.421Z,-0.55
2023-01-30T12:09:57.896Z,-0.55
2023-01-30T12:12:27.809Z,-0.56
2023-01-30T12:15:02.455Z,-0.57
2023-01-30T12:17:55.818Z,-0.59
2023-01-30T12:20:41.178Z,-0.59
2023-01-30T12:23:14.767Z,-0.65
2023-01-30T12:25:52.047Z,-0.71
2023-01-30T12:28:19.716Z,-0.78
2023-01-30T12:30:54.491Z,-0.80
2023-01-30T12:33:22.689Z,-0.84
2023-01-30T12:35:57.238Z,-0.83
2023-01-30T12:38:34.634Z,-0.87
2023-01-30T12:41:07.494Z,-0.88
2023-01-30T12:43:54.660Z,-0.90
2023-01-30T12:46:33.829Z,-0.93
2023-01-30T12:49:24.081Z,-0.92
2023-01-30T12:51:56.885Z,-0.89
2023-01-30T12:54:31.574Z,-0.86
2023-01-30T12:57:01.277Z,-0.83
2023-01-30T12:59:50.126Z,-0.78
2023-01-30T13:02:29.257Z,-0.76
2023-01-30T13:05:15.330Z,-0.73
2023-01-30T13:07:49.642Z,-0.67
2023-01-30T13:10:19.972Z,-0.62
2023-01-30T13:12:47.165Z,-0.59
2023-01-30T13:15:26.276Z,-0.55
2023-01-30T13:17:59.495Z,-0.50
2023-01-30T13:20:45.305Z,-0.41
2023-01-30T13:23:22.111Z,-0.31
2023-01-30T13:26:19.034Z,-0.19
2023-01-30T13:28:51.448Z,-0.09
2023-01-30T13:31:21.676Z,-0.03
2023-01-30T13:34:02.014Z,0.04
2023-01-30T13:36:49.223Z,0.14
2023-01-30T13:39:23.993Z,0.15
2023-01-30T13:41:56.381Z,0.17
2023-01-30T13:44:30.254Z,0.23
2023-01-30T13:46:59.030Z,0.27
2023-01-30T13:49:44.402Z,0.31
2023-01-30T13:52:24.207Z,0.35
2023-01-30T13:55:11.189Z,0.37
2023-01-30T13:57:38.146Z,0.39
2023-01-30T14:00:08.927Z,0.40
2023-01-30T14:02:58.689Z,0.40
2023-01-30T14:05:48.562Z,0.42
2023-01-30T14:08:20.648Z,0.42
2023-01-30T14:10:48.781Z,0.43
2023-01-30T14:13:17.141Z,0.42
2023-01-30T14:15:54.854Z,0.39
2023-01-30T14:18:21.762Z,0.39
2023-01-30T14:20:49.948Z,0.38
2023-01-30T14:23:19.651Z,0.37
2023-01-30T14:25:47.995Z,0.36
2023-01-30T14:28:14.749Z,0.35
2023-01-30T14:30:45.049Z,0.34
2023-01-30T14:33:21.186Z,0.33
2023-01-30T14:35:50.885Z,0.33
2023-01-30T14:38:19.081Z,0.32
2023-01-30T14:41:08.733Z,0.31
2023-01-30T14:43:41.616Z,0.29
2023-01-30T14:46:14.527Z,0.27
2023-01-30T14:48:44.756Z,0.25
2023-01-30T14:51:20.800Z,0.23
2023-01-30T14:53:50.787Z,0.21
2023-01-30T14:56:18.490Z,0.20
2023-01-30T14:58:54.794Z,0.19
2023-01-30T15:01:21.704Z,0.18
2023-01-30T15:03:49.003Z,0.17
2023-01-30T15:06:16.490Z,0.16
2023-01-30T15:08:44.283Z,0.12
2023-01-30T15:11:20.134Z,0.05
2023-01-30T15:13:55.823Z,-0.01
2023-01-30T15:16:36.794Z,-0.04
2023-01-30T15:19:03.922Z,-0.06
2023-01-30T15:21:37.242Z,-0.06
2023-01-30T15:24:16.740Z,-0.06
2023-01-30T15:27:04.408Z,-0.09
2023-01-30T15:29:37.555Z,-0.11
2023-01-30T15:32:17.929Z,-0.24
2023-01-30T15:34:58.749Z,-0.35
2023-01-30T15:37:51.963Z,-0.47
2023-01-30T15:40:22.395Z,-0.60
2023-01-30T15:42:58.464Z,-0.69
2023-01-30T15:45:34.586Z,-0.79
2023-01-30T15:48:13.994Z,-0.95
2023-01-30T15:50:46.760Z,-1.09
2023-01-30T15:53:14.835Z,-1.21
2023-01-30T15:55:42.781Z,-1.28
2023-01-30T15:58:13.443Z,-1.37
2023-01-30T16:00:45.190Z,-1.42
2023-01-30T16:03:14.976Z,-1.47
2023-01-30T16:05:49.129Z,-1.51
2023-01-30T16:08:26.781Z,-1.53
2023-01-30T16:10:53.960Z,-1.57
2023-01-30T16:13:23.333Z,-1.58
2023-01-30T16:15:55.096Z,-1.59
2023-01-30T16:18:25.278Z,-1.60
2023-01-30T16:21:01.487Z,-1.62
2023-01-30T16:23:29.523Z,-1.65
2023-01-30T16:25:56.825Z,-1.66
2023-01-30T16:28:24.592Z,-1.68
2023-01-30T16:31:02.229Z,-1.69
2023-01-30T16:33:35.611Z,-1.65
2023-01-30T16:36:06.694Z,-1.61
2023-01-30T16:38:39.130Z,-1.59
2023-01-30T16:41:06.017Z,-1.52
2023-01-30T16:43:33.686Z,-1.48
2023-01-30T16:46:27.673Z,-1.43
2023-01-30T16:49:01.428Z,-1.37
2023-01-30T16:51:28.407Z,-1.33
2023-01-30T16:54:00.857Z,-1.30
2023-01-30T16:56:29.871Z,-1.27
2023-01-30T16:58:58.504Z,-1.23
2023-01-30T17:01:39.818Z,-1.19
2023-01-30T17:04:14.655Z,-1.14
2023-01-30T17:06:44.164Z,-1.11
2023-01-30T17:09:29.475Z,-1.08
2023-01-30T17:11:56.570Z,-1.07
2023-01-30T17:14:25.410Z,-1.05
2023-01-30T17:17:08.162Z,-1.04
2023-01-30T17:19:35.679Z,-1.03
2023-01-30T17:22:04.256Z,-1.02
2023-01-30T17:24:31.305Z,-1.02
2023-01-30T17:27:01.749Z,-1.02
2023-01-30T17:29:42.041Z,-1.03
2023-01-30T17:32:11.084Z,-1.02
2023-01-30T17:34:40.542Z,-1.02
2023-01-30T17:37:15.657Z,-1.02
2023-01-30T17:39:42.484Z,-1.01
2023-01-30T17:42:09.991Z,-1.01
2023-01-30T17:44:36.873Z,-1.00
2023-01-30T17:47:03.714Z,-1.00
2023-01-30T17:49:30.559Z,-1.00
2023-01-30T17:51:59.159Z,-1.01
2023-01-30T17:54:26.346Z,-1.01
2023-01-30T17:56:59.576Z,-1.01
2023-01-30T17:59:26.710Z,-1.00
2023-01-30T18:01:53.578Z,-0.99
2023-01-30T18:04:20.581Z,-1.00
2023-01-30T18:06:52.776Z,-0.99
2023-01-30T18:09:21.150Z,-0.98
2023-01-30T18:11:48.447Z,-0.97
2023-01-30T18:14:15.908Z,-0.96
2023-01-30T18:16:43.114Z,-0.95
2023-01-30T18:19:14.270Z,-0.95
2023-01-30T18:21:44.449Z,-0.96
2023-01-30T18:24:12.108Z,-0.94
2023-01-30T18:26:39.859Z,-0.93
2023-01-30T18:29:07.264Z,-0.93
2023-01-30T18:31:34.319Z,-0.94
2023-01-30T18:34:01.363Z,-0.93
2023-01-30T18:36:28.267Z,-0.94
2023-01-30T18:38:55.130Z,-0.96
2023-01-30T18:41:23.107Z,-1.00
2023-01-30T18:43:53.890Z,-1.08
2023-01-30T18:46:20.728Z,-1.12
2023-01-30T18:48:47.524Z,-1.16
2023-01-30T18:51:18.752Z,-1.21
2023-01-30T18:53:47.027Z,-1.19
2023-01-30T18:56:15.453Z,-1.18
2023-01-30T18:58:44.284Z,-1.17
2023-01-30T19:01:15.346Z,-1.18
2023-01-30T19:03:42.541Z,-1.18
2023-01-30T19:06:11.662Z,-1.18
2023-01-30T19:08:38.551Z,-1.17
2023-01-30T19:11:26.892Z,-1.17
2023-01-30T19:13:54.259Z,-1.17
2023-01-30T19:16:22.670Z,-1.17
2023-01-30T19:18:49.917Z,-1.17
2023-01-30T19:21:17.461Z,-1.16
2023-01-30T19:23:44.683Z,-1.17
2023-01-30T19:26:12.114Z,-1.18
2023-01-30T19:28:41.074Z,-1.18
2023-01-30T19:31:09.018Z,-1.18
2023-01-30T19:33:36.063Z,-1.19
2023-01-30T19:36:09.853Z,-1.18
2023-01-30T19:38:36.716Z,-1.18
2023-01-30T19:41:04.094Z,-1.20
2023-01-30T19:43:30.971Z,-1.18
2023-01-30T19:45:58.702Z,-1.20
2023-01-30T19:48:26.040Z,-1.21
2023-01-30T19:50:52.941Z,-1.22
2023-01-30T19:53:19.946Z,-1.21
2023-01-30T19:55:50.481Z,-1.22
2023-01-30T19:58:17.850Z,-1.21
2023-01-30T20:00:44.707Z,-1.21
2023-01-30T20:03:15.704Z,-1.22
2023-01-30T20:05:43.091Z,-1.22
2023-01-30T20:08:21.804Z,-1.22
2023-01-30T20:11:03.079Z,-1.22
2023-01-30T20:13:29.984Z,-1.23
2023-01-30T20:16:04.489Z,-1.22
2023-01-30T20:18:34.806Z,-1.22
2023-01-30T20:21:08.897Z,-1.22
2023-01-30T20:23:36.535Z,-1.23
2023-01-30T20:26:07.359Z,-1.23
2023-01-30T20:28:34.654Z,-1.24
2023-01-30T20:31:06.872Z,-1.22
2023-01-30T20:33:33.900Z,-1.22
2023-01-30T20:36:01.617Z,-1.24
2023-01-30T20:38:29.882Z,-1.27
2023-01-30T20:41:03.877Z,-1.28
2023-01-30T20:43:31.537Z,-1.29
2023-01-30T20:46:10.476Z,-1.30
2023-01-30T20:48:38.439Z,-1.31
2023-01-30T20:51:06.650Z,-1.31
2023-01-30T20:53:33.758Z,-1.31
2023-01-30T20:56:01.244Z,-1.31
2023-01-30T20:58:28.521Z,-1.31
2023-01-30T21:00:55.662Z,-1.31
2023-01-30T21:03:24.212Z,-1.31
2023-01-30T21:05:57.616Z,-1.31
2023-01-30T21:08:25.965Z,-1.31
2023-01-30T21:10:53.593Z,-1.31
2023-01-30T21:13:20.551Z,-1.31
2023-01-30T21:15:47.655Z,-1.32
2023-01-30T21:18:14.538Z,-1.32
2023-01-30T21:20:47.225Z,-1.32
2023-01-30T21:23:14.963Z,-1.32
2023-01-30T21:25:41.780Z,-1.33
2023-01-30T21:28:08.650Z,-1.34
2023-01-30T21:30:35.812Z,-1.35
2023-01-30T21:33:02.822Z,-1.36
2023-01-30T21:35:29.922Z,-1.37
2023-01-30T21:38:15.328Z,-1.38
2023-01-30T21:41:08.453Z,-1.38
2023-01-30T21:43:35.420Z,-1.38
2023-01-30T21:46:03.021Z,-1.36
2023-01-30T21:48:32.558Z,-1.36
2023-01-30T21:51:07.899Z,-1.37
2023-01-30T21:53:34.722Z,-1.37
2023-01-30T21:56:01.600Z,-1.36
2023-01-30T21:58:32.198Z,-1.36
2023-01-30T22:01:06.462Z,-1.35
2023-01-30T22:03:36.563Z,-1.35
2023-01-30T22:06:06.054Z,-1.35
2023-01-30T22:08:34.630Z,-1.34
2023-01-30T22:11:04.504Z,-1.35
2023-01-30T22:13:33.184Z,-1.34
2023-01-30T22:16:02.378Z,-1.34
2023-01-30T22:18:29.741Z,-1.33
2023-01-30T22:21:02.501Z,-1.33
2023-01-30T22:23:36.288Z,-1.33
2023-01-30T22:26:03.543Z,-1.34
2023-01-30T22:28:31.071Z,-1.33
2023-01-30T22:31:05.352Z,-1.33
2023-01-30T22:33:33.039Z,-1.34
2023-01-30T22:36:01.194Z,-1.35
2023-01-30T22:38:28.069Z,-1.34
2023-01-30T22:41:00.477Z,-1.34
2023-01-30T22:43:28.201Z,-1.35
2023-01-30T22:46:01.810Z,-1.34
2023-01-30T22:48:29.279Z,-1.35
2023-01-30T22:51:06.538Z,-1.34
2023-01-30T22:53:38.368Z,-1.35
2023-01-30T22:56:07.038Z,-1.35
2023-01-30T22:58:34.201Z,-1.36
2023-01-30T23:01:18.364Z,-1.36
2023-01-30T23:03:46.013Z,-1.36
2023-01-30T23:06:14.608Z,-1.35
2023-01-30T23:08:43.081Z,-1.35
2023-01-30T23:11:09.867Z,-1.35
2023-01-30T23:13:38.047Z,-1.34
2023-01-30T23:16:06.022Z,-1.34
2023-01-30T23:18:52.237Z,-1.34
2023-01-30T23:21:19.389Z,-1.35
2023-01-30T23:23:46.418Z,-1.35
2023-01-30T23:26:13.277Z,-1.35
2023-01-30T23:28:40.398Z,-1.34
2023-01-30T23:31:11.447Z,-1.34
2023-01-30T23:33:38.923Z,-1.34
2023-01-30T23:36:07.145Z,-1.34
2023-01-30T23:38:34.507Z,-1.34
2023-01-30T23:41:05.861Z,-1.35
2023-01-30T23:43:32.895Z,-1.35
2023-01-30T23:46:35.323Z,-1.35
2023-01-30T23:49:04.452Z,-1.35
2023-01-30T23:51:32.311Z,-1.35
2023-01-30T23:53:59.141Z,-1.35
2023-01-30T23:56:27.108Z,-1.36
2023-01-30T23:58:54.021Z,-1.36
